Terminal Aerodrome Forecast
Issued by NWS Wichita, KS

Home | Current Version | Previous Version | Text Only | Print | Product List | Glossary On
Versions: 1 2 3 4 5 6 7 8 9 10 11 12 13 14 15 16
000
FTUS43 KICT 020049 AAA
TAFICT
TAF AMD
KICT 020049Z 0201/0224 36009KT P6SM SCT100
     FM020800 34008KT P6SM SCT020
     FM021200 02010KT P6SM SCT020
     FM021600 04010KT P6SM BKN150=

USA.gov is the U.S. government's official web portal to all federal, state and local government web resources and services.